Time;durP1;ratioP1;P1;durP2;ratioP2;P2;SDS_P1;SDS_P2;PMS_P1;PMS_P2;Temp;Humidity;BMP_temperature;BMP_pressure;BME280_temperature;BME280_humidity;BME280_pressure;Samples;Min_cycle;Max_cycle;Signal;HPM_P1;HPM_P2
2022/02/15 00:00:57;;;;;;;2.00;1.73;;;;;;;3.01;100.00;94503.66;5019085;28;20034;-66
2022/02/15 00:03:37;;;;;;;2.70;1.90;;;;;;;3.00;100.00;94492.28;5018699;28;20026;-66
2022/02/15 00:06:09;;;;;;;2.22;1.65;;;;;;;2.99;100.00;94489.88;5018909;28;20068;-66
2022/02/15 00:08:34;;;;;;;1.98;1.60;;;;;;;2.98;100.00;94491.72;5000998;28;20432;-66
2022/02/15 00:10:59;;;;;;;2.17;1.73;;;;;;;2.99;100.00;94492.50;5016929;28;20051;-66
2022/02/15 00:13:31;;;;;;;2.50;1.70;;;;;;;2.98;100.00;94494.34;5018403;28;20037;-66
2022/02/15 00:15:59;;;;;;;3.08;2.03;;;;;;;2.98;100.00;94491.72;5017464;28;20416;-66
2022/02/15 00:18:25;;;;;;;2.55;1.80;;;;;;;2.98;100.00;94490.91;5017329;28;20025;-66
2022/02/15 00:20:50;;;;;;;3.03;1.77;;;;;;;2.96;100.00;94490.34;5008204;28;20182;-66
2022/02/15 00:23:16;;;;;;;2.08;1.70;;;;;;;2.94;100.00;94489.78;5012298;28;20041;-66
2022/02/15 00:25:42;;;;;;;2.00;1.65;;;;;;;2.93;100.00;94481.03;5017077;28;20061;-66
2022/02/15 00:28:10;;;;;;;3.28;1.90;;;;;;;2.90;100.00;94481.47;5017161;28;20026;-65
2022/02/15 00:30:35;;;;;;;1.67;1.50;;;;;;;2.90;100.00;94479.63;5017263;28;20038;-66
2022/02/15 00:33:01;;;;;;;1.75;1.52;;;;;;;2.89;100.00;94474.59;5017083;28;20022;-66
2022/02/15 00:35:26;;;;;;;2.28;1.50;;;;;;;2.91;100.00;94475.16;5016629;28;20030;-65
2022/02/15 00:37:52;;;;;;;2.00;1.73;;;;;;;2.90;100.00;94466.41;5016452;28;20056;-65
2022/02/15 00:40:23;;;;;;;2.42;1.75;;;;;;;2.91;100.00;94469.88;5016865;28;20086;-66
2022/02/15 00:42:48;;;;;;;2.95;2.20;;;;;;;2.90;100.00;94469.06;5016135;28;20108;-66
2022/02/15 00:45:14;;;;;;;2.30;1.92;;;;;;;2.91;100.00;94465.38;4989817;28;20053;-66
2022/02/15 00:47:39;;;;;;;3.15;2.30;;;;;;;2.89;100.00;94474.59;5011153;28;20045;-66
2022/02/15 00:50:05;;;;;;;3.88;1.75;;;;;;;2.89;100.00;94478.03;5015157;28;20053;-66
2022/02/15 00:52:31;;;;;;;2.92;2.40;;;;;;;2.87;100.00;94482.75;5005590;28;20022;-66
2022/02/15 00:54:57;;;;;;;3.40;2.17;;;;;;;2.87;100.00;94482.75;5015160;28;20026;-66
2022/02/15 00:57:23;;;;;;;2.80;2.10;;;;;;;2.87;100.00;94484.59;4998074;28;20022;-65
2022/02/15 00:59:49;;;;;;;2.33;1.85;;;;;;;2.85;100.00;94470.81;5014796;28;20384;-66
2022/02/15 01:02:15;;;;;;;3.35;2.33;;;;;;;2.84;100.00;94477.94;5016208;28;20022;-65
2022/02/15 01:04:40;;;;;;;3.90;2.67;;;;;;;2.83;100.00;94475.53;5016124;28;20021;-65
2022/02/15 01:07:06;;;;;;;2.95;2.53;;;;;;;2.82;100.00;94476.53;5015977;28;20014;-66
2022/02/15 01:09:32;;;;;;;3.08;2.63;;;;;;;2.80;100.00;94466.19;5014989;28;20029;-66
2022/02/15 01:11:57;;;;;;;4.10;2.72;;;;;;;2.79;100.00;94469.06;5016090;28;20084;-65
2022/02/15 01:14:23;;;;;;;3.50;2.72;;;;;;;2.78;100.00;94470.13;5016320;28;20481;-66
2022/02/15 01:16:50;;;;;;;3.92;3.00;;;;;;;2.77;100.00;94465.84;5016195;28;20030;-66
2022/02/15 01:19:22;;;;;;;4.10;3.25;;;;;;;2.76;100.00;94462.41;5016346;28;20030;-66
2022/02/15 01:21:50;;;;;;;4.43;3.10;;;;;;;2.78;100.00;94464.81;4999113;28;20029;-66
2022/02/15 01:24:18;;;;;;;4.55;3.40;;;;;;;2.79;100.00;94458.50;5016407;28;20080;-66
2022/02/15 01:26:45;;;;;;;4.32;3.15;;;;;;;2.78;100.00;94462.97;5016497;28;20097;-66
2022/02/15 01:29:11;;;;;;;4.07;3.05;;;;;;;2.78;100.00;94455.03;5016412;28;20045;-66
2022/02/15 01:31:36;;;;;;;3.97;3.22;;;;;;;2.76;100.00;94449.19;5016654;28;20033;-66
2022/02/15 01:34:02;;;;;;;5.07;3.40;;;;;;;2.75;100.00;94450.22;5016578;28;20049;-66
2022/02/15 01:36:27;;;;;;;4.95;3.92;;;;;;;2.74;100.00;94440.69;5016240;28;20026;-65
2022/02/15 01:38:55;;;;;;;4.68;3.17;;;;;;;2.74;100.00;94445.97;5016289;28;20034;-66
2022/02/15 01:41:27;;;;;;;4.75;3.03;;;;;;;2.72;100.00;94437.47;4998927;28;20026;-66
2022/02/15 01:43:55;;;;;;;5.07;3.58;;;;;;;2.72;100.00;94442.78;5016359;28;20388;-66
2022/02/15 01:46:21;;;;;;;5.13;3.90;;;;;;;2.71;100.00;94446.41;5003174;28;20018;-66
2022/02/15 01:48:49;;;;;;;4.90;3.38;;;;;;;2.71;100.00;94437.69;5016255;28;20127;-66
2022/02/15 01:51:18;;;;;;;4.38;3.13;;;;;;;2.71;100.00;94443.78;5013815;28;20033;-66
2022/02/15 01:53:44;;;;;;;4.45;3.33;;;;;;;2.69;100.00;94437.13;5008104;28;20510;-65
2022/02/15 01:56:19;;;;;;;5.10;3.85;;;;;;;2.70;100.00;94441.38;5015864;28;20030;-66
2022/02/15 01:58:45;;;;;;;4.30;3.30;;;;;;;2.70;100.00;94438.72;5014146;28;20460;-66
2022/02/15 02:01:10;;;;;;;4.65;3.80;;;;;;;2.68;100.00;94446.88;4998162;28;20033;-66
2022/02/15 02:03:36;;;;;;;3.35;2.80;;;;;;;2.65;100.00;94439.44;5016042;28;20026;-66
2022/02/15 02:06:01;;;;;;;4.18;3.00;;;;;;;2.61;100.00;94441.75;5016178;28;20105;-65
2022/02/15 02:08:33;;;;;;;3.97;3.15;;;;;;;2.60;100.00;94434.84;5014747;28;20026;-66
2022/02/15 02:11:03;;;;;;;5.65;3.42;;;;;;;2.61;100.00;94433.81;4998607;28;20025;-66
2022/02/15 02:13:36;;;;;;;4.95;3.65;;;;;;;2.60;100.00;94431.38;5015779;28;20018;-66
2022/02/15 02:16:05;;;;;;;4.75;3.45;;;;;;;2.58;100.00;94436.09;5015481;28;20026;-66
2022/02/15 02:18:33;;;;;;;4.80;3.35;;;;;;;2.60;100.00;94431.38;4997858;28;20026;-66
2022/02/15 02:21:08;;;;;;;5.43;3.78;;;;;;;2.58;100.00;94428.16;4998852;28;20026;-66
2022/02/15 02:23:34;;;;;;;4.75;3.75;;;;;;;2.59;100.00;94427.13;5015473;28;20056;-66
2022/02/15 02:26:02;;;;;;;5.22;3.72;;;;;;;2.61;100.00;94430.38;5015854;28;20033;-66
2022/02/15 02:28:29;;;;;;;8.15;3.78;;;;;;;2.60;100.00;94426.91;4997290;28;20030;-66
2022/02/15 02:30:54;;;;;;;5.50;3.58;;;;;;;2.60;100.00;94423.44;5015988;28;20029;-66
2022/02/15 02:33:23;;;;;;;5.80;4.00;;;;;;;2.59;100.00;94417.34;5015204;28;20112;-66
2022/02/15 02:35:59;;;;;;;7.50;3.88;;;;;;;2.60;100.00;94424.28;5013624;28;20025;-65
2022/02/15 02:38:24;;;;;;;5.35;3.70;;;;;;;2.62;100.00;94429.31;5013721;28;20022;-66
2022/02/15 02:40:50;;;;;;;7.00;4.13;;;;;;;2.63;100.00;94433.56;5015492;28;20400;-66
2022/02/15 02:43:15;;;;;;;4.82;3.72;;;;;;;2.65;100.00;94431.50;5015196;28;20026;-66
2022/02/15 02:45:41;;;;;;;5.65;4.22;;;;;;;2.67;100.00;94436.53;5002634;28;20080;-66
2022/02/15 02:48:08;;;;;;;5.15;3.70;;;;;;;2.67;100.00;94439.19;5013569;28;20449;-63
2022/02/15 02:50:38;;;;;;;6.95;4.63;;;;;;;2.67;100.00;94441.84;5013708;28;20017;-65
2022/02/15 02:53:09;;;;;;;5.60;3.83;;;;;;;2.68;100.00;94435.50;4987735;28;20029;-66
2022/02/15 02:55:34;;;;;;;6.55;4.28;;;;;;;2.68;100.00;94431.03;5000969;28;20022;-65
2022/02/15 02:58:03;;;;;;;6.13;4.45;;;;;;;2.68;100.00;94438.16;5013663;28;20109;-66
2022/02/15 03:00:36;;;;;;;5.40;3.78;;;;;;;2.66;100.00;94430.47;5014429;28;20389;-65
2022/02/15 03:03:07;;;;;;;7.53;4.85;;;;;;;2.65;100.00;94431.50;5015641;28;20021;-66
2022/02/15 03:05:34;;;;;;;7.35;4.57;;;;;;;2.65;100.00;94446.56;5014479;28;20030;-66
2022/02/15 03:08:03;;;;;;;6.43;4.38;;;;;;;2.64;100.00;94440.47;4996732;28;20014;-66
2022/02/15 03:10:28;;;;;;;7.18;4.70;;;;;;;2.66;100.00;94440.22;5013922;28;20392;-66
2022/02/15 03:12:59;;;;;;;7.95;4.88;;;;;;;2.67;100.00;94433.91;5014406;28;20022;-65
2022/02/15 03:15:25;;;;;;;7.80;5.13;;;;;;;2.66;100.00;94432.28;5013120;28;20061;-66
2022/02/15 03:17:50;;;;;;;7.03;4.93;;;;;;;2.67;100.00;94436.53;5014287;28;20050;-65
2022/02/15 03:20:16;;;;;;;7.22;4.80;;;;;;;2.67;100.00;94433.91;5013962;28;20511;-66
2022/02/15 03:22:41;;;;;;;5.75;4.75;;;;;;;2.68;100.00;94435.50;5014334;28;20030;-66
2022/02/15 03:25:06;;;;;;;6.20;4.38;;;;;;;2.68;100.00;94435.50;5014006;28;20436;-66
2022/02/15 03:27:32;;;;;;;7.00;5.00;;;;;;;2.67;100.00;94441.84;5014163;28;20424;-66
2022/02/15 03:29:57;;;;;;;7.75;5.18;;;;;;;2.67;100.00;94445.28;5013913;28;20046;-65
2022/02/15 03:32:22;;;;;;;6.80;4.63;;;;;;;2.68;100.00;94440.81;5013914;28;20029;-66
2022/02/15 03:34:48;;;;;;;7.95;4.93;;;;;;;2.67;100.00;94447.13;5013813;28;20030;-66
2022/02/15 03:37:13;;;;;;;7.22;4.38;;;;;;;2.67;100.00;94453.22;5012367;28;20037;-66
2022/02/15 03:39:42;;;;;;;6.90;4.63;;;;;;;2.67;100.00;94450.56;5013691;28;20034;-66
2022/02/15 03:44:53;;;;;;;6.40;4.63;;;;;;;2.68;100.00;94451.38;5007374;28;20546;-65
2022/02/15 03:47:21;;;;;;;7.32;5.30;;;;;;;2.69;100.00;94452.97;5006665;28;20048;-66
2022/02/15 03:49:53;;;;;;;6.60;4.72;;;;;;;2.70;100.00;94446.66;5013234;28;20017;-66
2022/02/15 03:52:18;;;;;;;7.70;4.68;;;;;;;2.70;100.00;94451.94;5004010;28;20451;-66
2022/02/15 03:54:43;;;;;;;7.55;5.25;;;;;;;2.70;100.00;94455.38;5013153;28;20104;-65
2022/02/15 03:57:09;;;;;;;7.47;4.80;;;;;;;2.68;100.00;94451.38;4995446;28;20033;-66
2022/02/15 03:59:34;;;;;;;6.55;4.80;;;;;;;2.67;100.00;94455.84;5013143;28;20394;-66
2022/02/15 04:02:03;;;;;;;6.13;4.68;;;;;;;2.66;100.00;94464.81;5011750;28;20026;-65
2022/02/15 04:04:28;;;;;;;7.72;5.15;;;;;;;2.67;100.00;94457.69;4995476;28;20041;-65
2022/02/15 04:06:54;;;;;;;7.13;4.70;;;;;;;2.68;100.00;94461.94;5011567;28;20030;-66
2022/02/15 04:09:19;;;;;;;6.60;4.85;;;;;;;2.68;100.00;94467.25;5011682;28;20026;-66
2022/02/15 04:11:45;;;;;;;5.85;4.60;;;;;;;2.68;100.00;94462.75;5012432;28;20033;-65
2022/02/15 04:14:16;;;;;;;7.82;4.85;;;;;;;2.69;100.00;94463.56;5012556;28;20033;-66
2022/02/15 04:16:42;;;;;;;6.35;4.50;;;;;;;2.68;100.00;94460.09;5012237;28;20039;-65
2022/02/15 04:19:10;;;;;;;8.95;5.25;;;;;;;2.69;100.00;94464.38;5012484;28;20026;-66
2022/02/15 04:21:35;;;;;;;6.30;4.78;;;;;;;2.69;100.00;94471.50;4995366;28;20469;-66
2022/02/15 04:24:01;;;;;;;10.43;5.20;;;;;;;2.71;100.00;94472.84;5015780;28;20105;-66
2022/02/15 04:26:26;;;;;;;6.55;4.72;;;;;;;2.71;100.00;94475.50;4998561;28;20022;-66
2022/02/15 04:28:52;;;;;;;6.95;4.90;;;;;;;2.73;100.00;94477.94;5006349;23;20064;-66
2022/02/15 04:31:20;;;;;;;7.93;5.60;;;;;;;2.74;100.00;94471.63;4981067;28;20042;-66
2022/02/15 04:33:48;;;;;;;9.27;6.18;;;;;;;2.74;100.00;94480.34;4995061;28;20362;-65
2022/02/15 04:36:16;;;;;;;8.68;5.80;;;;;;;2.78;100.00;94481.50;4979247;28;20090;-66
2022/02/15 04:38:48;;;;;;;6.88;5.57;;;;;;;2.80;100.00;94475.97;4977523;28;20069;-66
2022/02/15 04:41:20;;;;;;;9.50;6.35;;;;;;;2.82;100.00;94466.78;4976417;28;20367;-66
2022/02/15 04:43:47;;;;;;;7.88;5.40;;;;;;;2.82;100.00;94471.25;4976330;28;20122;-66
2022/02/15 04:46:15;;;;;;;8.80;6.13;;;;;;;2.82;100.00;94477.38;4979061;28;20101;-66
2022/02/15 04:48:48;;;;;;;7.57;5.53;;;;;;;2.83;100.00;94472.88;4983306;28;20027;-66
2022/02/15 04:51:20;;;;;;;10.65;6.57;;;;;;;2.84;100.00;94474.50;4991310;28;20113;-66
2022/02/15 04:53:45;;;;;;;9.18;6.10;;;;;;;2.84;100.00;94475.28;4976096;28;20559;-67
2022/02/15 04:56:20;;;;;;;9.30;6.07;;;;;;;2.84;100.00;94483.22;4976145;28;20026;-66
2022/02/15 04:58:48;;;;;;;7.78;5.57;;;;;;;2.82;100.00;94487.94;4976059;28;20058;-66
2022/02/15 05:01:14;;;;;;;7.70;5.60;;;;;;;2.81;100.00;94482.88;4975975;28;20022;-66
2022/02/15 05:03:40;;;;;;;7.50;5.00;;;;;;;2.76;100.00;94482.75;4979249;28;20033;-66
2022/02/15 05:06:11;;;;;;;7.53;5.35;;;;;;;2.74;100.00;94485.66;4975885;28;20066;-66
2022/02/15 05:08:40;;;;;;;8.13;5.78;;;;;;;2.74;100.00;94484.84;4975827;28;20022;-67
2022/02/15 05:11:06;;;;;;;7.00;4.80;;;;;;;2.72;100.00;94485.06;4975815;28;20030;-67
2022/02/15 05:13:31;;;;;;;6.72;4.13;;;;;;;2.70;100.00;94494.25;4990677;28;20401;-66
2022/02/15 05:16:00;;;;;;;5.07;3.58;;;;;;;2.66;100.00;94491.28;4974756;28;20115;-67
2022/02/15 05:18:27;;;;;;;5.15;3.28;;;;;;;2.65;100.00;94491.50;4975708;28;20025;-67
2022/02/15 05:21:02;;;;;;;3.97;2.95;;;;;;;2.60;100.00;94497.47;4975770;28;20035;-66
2022/02/15 05:23:29;;;;;;;4.85;3.00;;;;;;;2.56;100.00;94501.63;4990604;28;20080;-66
2022/02/15 05:25:54;;;;;;;5.55;3.35;;;;;;;2.55;100.00;94498.16;4976116;28;20436;-66
2022/02/15 05:28:19;;;;;;;4.13;2.55;;;;;;;2.53;100.00;94502.88;4975424;28;20031;-66
2022/02/15 05:30:45;;;;;;;3.88;2.17;;;;;;;2.52;100.00;94503.13;4992034;28;20050;-66
2022/02/15 05:33:13;;;;;;;3.40;2.50;;;;;;;2.50;100.00;94500.69;4994456;28;20027;-66
2022/02/15 05:35:38;;;;;;;3.28;2.22;;;;;;;2.50;100.00;94505.19;4976988;28;20023;-66
2022/02/15 05:38:07;;;;;;;3.03;2.20;;;;;;;2.48;100.00;94502.75;4994732;28;20113;-66
2022/02/15 05:40:32;;;;;;;3.13;2.20;;;;;;;2.49;100.00;94508.84;4994750;28;20045;-66
2022/02/15 05:43:03;;;;;;;3.50;2.40;;;;;;;2.52;100.00;94516.34;4994708;28;20477;-67
2022/02/15 05:45:32;;;;;;;2.95;2.28;;;;;;;2.54;100.00;94525.63;4994791;28;20033;-66
2022/02/15 05:47:57;;;;;;;2.83;2.10;;;;;;;2.57;100.00;94517.25;4977349;28;20113;-67
2022/02/15 05:53:08;;;;;;;1.95;1.70;;;;;;;2.57;100.00;94529.66;4994892;28;20117;-67
2022/02/15 05:55:40;;;;;;;3.15;2.03;;;;;;;2.55;100.00;94537.00;4993578;28;20258;-67
2022/02/15 05:58:08;;;;;;;3.15;1.65;;;;;;;2.55;100.00;94539.66;4977064;28;20381;-66
2022/02/15 06:00:34;;;;;;;3.22;2.05;;;;;;;2.53;100.00;94542.53;4994344;28;20061;-67
2022/02/15 06:02:59;;;;;;;2.58;1.88;;;;;;;2.52;100.00;94535.63;4993202;28;20112;-66
2022/02/15 06:05:34;;;;;;;3.60;2.17;;;;;;;2.53;100.00;94544.38;4993020;28;20100;-66
2022/02/15 06:08:01;;;;;;;2.63;2.10;;;;;;;2.54;100.00;94551.28;4994282;28;20034;-67
2022/02/15 06:10:27;;;;;;;2.85;2.05;;;;;;;2.53;100.00;94560.25;4992976;28;20033;-66
2022/02/15 06:12:52;;;;;;;2.42;2.03;;;;;;;2.52;100.00;94555.97;4994350;28;20586;-66
2022/02/15 06:15:20;;;;;;;3.45;2.22;;;;;;;2.50;100.00;94555.41;4994244;28;20033;-67
2022/02/15 06:17:47;;;;;;;3.10;2.20;;;;;;;2.49;100.00;94559.06;4993919;28;20462;-65
2022/02/15 06:20:13;;;;;;;3.30;2.38;;;;;;;2.49;100.00;94564.34;4988788;28;20039;-66
2022/02/15 06:22:40;;;;;;;3.30;2.13;;;;;;;2.47;100.00;94563.78;4922834;28;20133;-66
2022/02/15 06:25:06;;;;;;;3.72;2.00;;;;;;;2.42;100.00;94572.41;4994169;28;20041;-66
2022/02/15 06:27:32;;;;;;;4.53;2.38;;;;;;;2.45;100.00;94581.72;4989018;28;20101;-66
2022/02/15 06:29:57;;;;;;;3.42;2.15;;;;;;;2.42;100.00;94579.53;4971884;28;20094;-65
2022/02/15 06:32:22;;;;;;;3.13;2.72;;;;;;;2.41;100.00;94589.28;4946767;28;20126;-66
2022/02/15 06:34:47;;;;;;;3.17;2.50;;;;;;;2.41;100.00;94589.28;4968646;28;20025;-67
2022/02/15 06:37:15;;;;;;;4.05;2.65;;;;;;;2.42;100.00;94603.31;4974142;28;20382;-67
2022/02/15 06:39:41;;;;;;;5.43;2.80;;;;;;;2.43;100.00;94605.72;4941909;28;20479;-66
2022/02/15 06:42:07;;;;;;;3.22;2.42;;;;;;;2.43;100.00;94607.56;4969458;28;20058;-66
2022/02/15 06:44:34;;;;;;;4.13;2.90;;;;;;;2.44;100.00;94614.47;4966367;28;20031;-64
2022/02/15 06:46:59;;;;;;;3.47;2.60;;;;;;;2.42;100.00;94617.31;4963905;28;20489;-66
2022/02/15 06:49:25;;;;;;;2.85;2.38;;;;;;;2.43;100.00;94624.22;4962599;28;20078;-67
2022/02/15 06:51:53;;;;;;;3.78;2.70;;;;;;;2.44;100.00;94633.75;4952561;28;20171;-65
2022/02/15 06:54:20;;;;;;;3.55;2.80;;;;;;;2.45;100.00;94637.22;4962725;28;20027;-66
2022/02/15 06:56:45;;;;;;;4.95;3.50;;;;;;;2.46;100.00;94634.34;4966176;28;20028;-66
2022/02/15 06:59:13;;;;;;;5.65;3.67;;;;;;;2.46;100.00;94621.13;4967639;28;20035;-67
2022/02/15 07:01:43;;;;;;;5.05;3.42;;;;;;;2.49;100.00;94630.44;4963223;28;20030;-67
2022/02/15 07:04:08;;;;;;;5.57;3.30;;;;;;;2.50;100.00;94632.88;4967963;28;20023;-67
2022/02/15 07:06:34;;;;;;;4.32;3.50;;;;;;;2.52;100.00;94627.34;4944698;28;20026;-67
2022/02/15 07:09:02;;;;;;;5.55;4.15;;;;;;;2.56;100.00;94639.09;4971041;28;20385;-68
2022/02/15 07:11:27;;;;;;;8.05;4.47;;;;;;;2.59;100.00;94638.63;4968327;28;20043;-66
2022/02/15 07:13:55;;;;;;;6.20;4.90;;;;;;;2.63;100.00;94633.72;4968943;28;20030;-66
2022/02/15 07:16:20;;;;;;;6.65;4.57;;;;;;;2.67;100.00;94638.31;4964645;28;20545;-67
2022/02/15 07:18:48;;;;;;;6.43;4.60;;;;;;;2.67;100.00;94635.66;4964897;28;20121;-67
2022/02/15 07:21:17;;;;;;;6.50;4.88;;;;;;;2.69;100.00;94632.78;4955889;28;20462;-66
2022/02/15 07:23:43;;;;;;;7.72;5.22;;;;;;;2.66;100.00;94628.75;4953526;28;20078;-67
2022/02/15 07:26:08;;;;;;;7.90;5.38;;;;;;;2.69;100.00;94638.06;4968555;28;20034;-67
2022/02/15 07:28:34;;;;;;;7.55;5.22;;;;;;;2.72;100.00;94648.22;4962553;28;20022;-66
2022/02/15 07:31:02;;;;;;;6.80;4.78;;;;;;;2.73;100.00;94658.56;4976100;28;20102;-66
2022/02/15 07:33:27;;;;;;;8.32;6.05;;;;;;;2.76;100.00;94665.25;4986660;28;20429;-67
2022/02/15 07:35:53;;;;;;;8.80;5.78;;;;;;;2.76;100.00;94660.75;4987836;28;20022;-66
2022/02/15 07:38:20;;;;;;;9.18;6.20;;;;;;;2.76;100.00;94665.25;5000146;28;20218;-67
2022/02/15 07:40:46;;;;;;;7.68;5.20;;;;;;;2.77;100.00;94672.94;4984571;28;20033;-67
2022/02/15 07:43:11;;;;;;;11.07;6.68;;;;;;;2.80;100.00;94680.41;4990006;28;20026;-67
2022/02/15 07:45:40;;;;;;;10.77;6.18;;;;;;;2.82;100.00;94682.81;4984501;28;20054;-66
2022/02/15 07:48:06;;;;;;;8.85;6.25;;;;;;;2.84;100.00;94676.31;4987537;28;20041;-66
2022/02/15 07:50:37;;;;;;;10.02;6.82;;;;;;;2.86;100.00;94681.38;4988444;28;20030;-67
2022/02/15 07:53:02;;;;;;;10.35;6.90;;;;;;;2.89;100.00;94680.91;4988910;28;20042;-67
2022/02/15 07:55:30;;;;;;;11.27;6.80;;;;;;;2.91;100.00;94674.34;4984190;28;20027;-68
2022/02/15 07:57:55;;;;;;;10.55;7.55;;;;;;;2.91;100.00;94674.34;4984143;28;20074;-67
2022/02/15 08:00:21;;;;;;;12.52;6.78;;;;;;;2.95;100.00;94676.56;4975759;28;20054;-67
2022/02/15 08:02:51;;;;;;;9.95;7.20;;;;;;;2.97;100.00;94679.78;4981286;28;20050;-67
2022/02/15 08:05:17;;;;;;;13.45;7.95;;;;;;;3.00;100.00;94682.75;4986888;28;20046;-64
2022/02/15 08:07:50;;;;;;;11.32;7.32;;;;;;;3.02;100.00;94685.97;4975626;28;20030;-66
2022/02/15 08:10:19;;;;;;;9.90;7.13;;;;;;;3.04;100.00;94688.41;4968542;28;20029;-66
2022/02/15 08:12:53;;;;;;;11.68;7.00;;;;;;;3.01;100.00;94686.22;5003682;28;20563;-66
2022/02/15 08:15:19;;;;;;;9.35;6.80;;;;;;;3.02;100.00;94695.75;4993603;28;20027;-66
2022/02/15 08:17:44;;;;;;;10.90;6.63;;;;;;;3.04;100.00;94693.69;4986396;28;20081;-67
2022/02/15 08:20:12;;;;;;;10.07;6.93;;;;;;;3.07;100.00;94699.34;4985040;28;20041;-67
2022/02/15 08:22:37;;;;;;;9.98;7.38;;;;;;;3.08;100.00;94706.25;4978413;28;20072;-67
2022/02/15 08:25:03;;;;;;;10.95;7.00;;;;;;;3.11;100.00;94700.50;4994923;28;21663;-67
2022/02/15 08:27:29;;;;;;;11.85;7.00;;;;;;;3.15;100.00;94708.81;4992037;28;20492;-67
2022/02/15 08:29:56;;;;;;;8.98;6.30;;;;;;;3.18;100.00;94713.63;4971963;28;20133;-67
2022/02/15 08:32:22;;;;;;;11.07;7.43;;;;;;;3.20;100.00;94716.84;4991108;28;20049;-68
2022/02/15 08:34:47;;;;;;;10.60;6.18;;;;;;;3.20;100.00;94714.22;4995984;28;20030;-67
2022/02/15 08:37:13;;;;;;;7.75;5.75;;;;;;;3.23;100.00;94718.22;5001491;28;20393;-68
2022/02/15 08:39:38;;;;;;;8.23;5.38;;;;;;;3.22;100.00;94724.56;4995802;28;20035;-67
2022/02/15 08:42:04;;;;;;;7.90;5.35;;;;;;;3.23;100.00;94721.69;4995808;28;20022;-67
2022/02/15 08:44:34;;;;;;;9.10;5.28;;;;;;;3.21;100.00;94729.06;4995755;28;20034;-68
2022/02/15 08:47:08;;;;;;;6.72;4.88;;;;;;;3.22;100.00;94733.31;4994265;28;20018;-68
2022/02/15 08:49:35;;;;;;;6.22;4.47;;;;;;;3.23;100.00;94739.41;4995446;28;20441;-66
2022/02/15 08:52:00;;;;;;;4.07;3.30;;;;;;;3.18;100.00;94748.03;4983521;28;20056;-67
2022/02/15 08:54:25;;;;;;;4.50;3.20;;;;;;;3.20;100.00;94752.06;5010520;28;20501;-67
2022/02/15 08:56:51;;;;;;;4.72;3.40;;;;;;;3.20;100.00;94756.56;4989758;28;20093;-67
2022/02/15 08:59:16;;;;;;;4.38;3.17;;;;;;;3.24;100.00;94764.84;4994908;28;20037;-67
2022/02/15 09:01:42;;;;;;;5.30;3.45;;;;;;;3.26;100.00;94770.75;4994447;28;20030;-67
2022/02/15 09:04:07;;;;;;;4.15;2.92;;;;;;;3.16;100.00;94772.09;5010437;28;20416;-66
2022/02/15 09:06:35;;;;;;;3.95;2.22;;;;;;;3.06;100.00;94771.03;4995138;28;20053;-68
2022/02/15 09:09:01;;;;;;;4.20;2.50;;;;;;;3.03;100.00;94772.25;4993838;28;20109;-68
2022/02/15 09:11:31;;;;;;;2.63;2.00;;;;;;;3.03;100.00;94772.25;4995303;28;20117;-67
2022/02/15 09:13:56;;;;;;;2.20;1.75;;;;;;;2.99;100.00;94788.81;4995251;28;20033;-67
2022/02/15 09:16:22;;;;;;;2.70;2.05;;;;;;;2.98;100.00;94793.31;4993706;28;20026;-67
2022/02/15 09:18:50;;;;;;;2.33;1.70;;;;;;;2.98;100.00;94785.38;4985617;28;20117;-67
2022/02/15 09:21:17;;;;;;;2.33;1.92;;;;;;;3.00;100.00;94790.44;4995141;28;20018;-67
2022/02/15 09:23:43;;;;;;;3.88;1.73;;;;;;;3.03;100.00;94793.41;4993668;28;20018;-67
2022/02/15 09:26:11;;;;;;;2.63;2.10;;;;;;;3.04;100.00;94784.47;4993558;28;20129;-66
2022/02/15 09:28:36;;;;;;;3.10;2.00;;;;;;;3.04;100.00;94787.13;5004162;28;20029;-67
2022/02/15 09:31:01;;;;;;;3.70;2.30;;;;;;;3.08;100.00;94790.13;4985739;28;20402;-67
2022/02/15 09:33:30;;;;;;;3.15;2.10;;;;;;;3.09;100.00;94795.19;4981739;28;20508;-66
2022/02/15 09:35:55;;;;;;;3.03;2.30;;;;;;;3.10;100.00;94785.41;4998523;28;20034;-69
2022/02/15 09:38:23;;;;;;;3.25;1.98;;;;;;;3.03;100.00;94795.25;4981813;28;20022;-66
2022/02/15 09:40:49;;;;;;;3.00;2.10;;;;;;;3.02;100.00;94789.16;4987530;28;20034;-66
2022/02/15 09:43:15;;;;;;;2.88;2.35;;;;;;;3.00;100.00;94793.88;4991375;28;20413;-67
2022/02/15 09:45:44;;;;;;;2.92;2.15;;;;;;;3.02;100.00;94796.28;4985954;28;20034;-67
2022/02/15 09:48:13;;;;;;;3.42;2.42;;;;;;;3.02;100.00;94801.59;4981916;28;20086;-66
2022/02/15 09:50:40;;;;;;;3.00;2.45;;;;;;;3.02;100.00;94796.28;4990912;28;20033;-66
2022/02/15 09:53:09;;;;;;;2.90;2.33;;;;;;;3.01;100.00;94794.69;4974937;28;20030;-66
2022/02/15 09:55:35;;;;;;;4.05;2.65;;;;;;;2.98;100.00;94811.03;4977047;28;20101;-66
2022/02/15 09:58:00;;;;;;;3.88;2.65;;;;;;;2.97;100.00;94812.84;4997249;28;20105;-67
2022/02/15 10:00:30;;;;;;;3.40;2.72;;;;;;;2.97;100.00;94818.16;4984959;28;20556;-66
2022/02/15 10:02:57;;;;;;;4.70;2.60;;;;;;;3.00;100.00;94815.06;4987207;28;20027;-66
2022/02/15 10:05:32;;;;;;;2.72;2.10;;;;;;;2.95;100.00;94811.47;5008514;28;20051;-65
2022/02/15 10:07:58;;;;;;;2.10;1.83;;;;;;;2.98;100.00;94811.81;4985927;28;20033;-67
2022/02/15 10:10:28;;;;;;;3.17;2.28;;;;;;;2.92;100.00;94815.34;4999459;28;20027;-67
2022/02/15 10:13:03;;;;;;;3.67;2.20;;;;;;;2.92;100.00;94826.75;4980638;28;20493;-66
2022/02/15 10:15:34;;;;;;;2.85;2.05;;;;;;;2.98;100.00;94829.53;4978234;28;20037;-67
2022/02/15 10:18:09;;;;;;;4.90;2.40;;;;;;;2.98;100.00;94832.19;4953562;28;20368;-66
2022/02/15 10:20:41;;;;;;;3.13;2.00;;;;;;;2.96;100.00;94829.75;4982622;28;20030;-67
2022/02/15 10:23:25;;;;;;;2.72;2.03;;;;;;;2.96;100.00;94831.59;4999372;28;20528;-67
2022/02/15 10:25:55;;;;;;;3.85;2.97;;;;;;;2.99;100.00;94834.59;4973926;28;20086;-67
2022/02/15 10:28:29;;;;;;;3.42;2.17;;;;;;;2.99;100.00;94831.16;4976950;28;20541;-67
2022/02/15 10:30:56;;;;;;;3.47;2.25;;;;;;;2.98;100.00;94829.53;5030794;23;20054;-64
2022/02/15 10:33:30;;;;;;;4.47;2.15;;;;;;;3.07;100.00;94841.44;4997601;28;20081;-65
2022/02/15 10:36:01;;;;;;;4.05;2.60;;;;;;;3.10;100.00;94836.50;4984167;28;20030;-64
2022/02/15 10:38:29;;;;;;;3.40;2.60;;;;;;;3.12;100.00;94839.72;5026509;28;20032;-65
2022/02/15 10:40:57;;;;;;;4.80;2.30;;;;;;;3.23;100.00;94834.69;4991782;28;20441;-64
2022/02/15 10:43:24;;;;;;;3.05;2.42;;;;;;;3.30;100.00;94849.44;5005856;28;20065;-63
2022/02/15 10:45:50;;;;;;;5.10;2.42;;;;;;;3.37;100.00;94838.78;5013153;28;20071;-63
2022/02/15 10:48:18;;;;;;;3.53;2.70;;;;;;;3.42;100.00;94841.53;5005387;28;20025;-64
2022/02/15 10:50:43;;;;;;;3.80;2.40;;;;;;;3.45;100.00;94841.91;5012819;28;20025;-64
2022/02/15 10:53:09;;;;;;;3.67;2.63;;;;;;;3.56;100.00;94834.19;5001498;28;20083;-64
2022/02/15 10:55:37;;;;;;;5.88;2.83;;;;;;;3.63;100.00;94835.72;5008510;28;20399;-64
2022/02/15 10:58:04;;;;;;;3.70;2.75;;;;;;;3.77;100.00;94837.13;4995926;28;20496;-64
2022/02/15 11:00:29;;;;;;;4.25;3.05;;;;;;;3.93;100.00;94832.19;5001565;28;20050;-64
2022/02/15 11:02:58;;;;;;;4.10;2.63;;;;;;;3.98;100.00;94827.81;5008343;28;20381;-61
2022/02/15 11:05:24;;;;;;;3.65;2.75;;;;;;;4.12;100.00;94825.72;4988635;28;20034;-63
2022/02/15 11:07:50;;;;;;;3.83;2.58;;;;;;;4.16;100.00;94826.91;4993593;28;20504;-62
2022/02/15 11:10:27;;;;;;;3.67;2.50;;;;;;;4.14;100.00;94836.13;5008776;28;20021;-65
2022/02/15 11:12:58;;;;;;;4.68;2.47;;;;;;;4.05;100.00;94825.06;5001022;28;20029;-63
2022/02/15 11:15:25;;;;;;;3.40;2.22;;;;;;;4.14;100.00;94838.78;5012595;28;20045;-64
2022/02/15 11:17:53;;;;;;;3.63;2.42;;;;;;;4.17;100.00;94836.47;4993906;28;20072;-62
2022/02/15 11:20:21;;;;;;;2.42;2.10;;;;;;;4.20;100.00;94838.66;5006691;28;20025;-63
2022/02/15 11:22:49;;;;;;;4.50;2.28;;;;;;;4.22;100.00;94839.22;5008915;28;20025;-63
2022/02/15 11:25:15;;;;;;;3.47;2.13;;;;;;;4.35;100.00;94844.31;5003229;28;20014;-62
2022/02/15 11:27:49;;;;;;;2.42;1.83;;;;;;;4.39;100.00;94842.00;5002630;28;20477;-61
2022/02/15 11:30:17;;;;;;;4.43;1.98;;;;;;;4.48;100.00;94847.75;5001334;28;20048;-62
2022/02/15 11:32:44;;;;;;;3.55;2.17;;;;;;;4.47;100.00;94843.50;4999659;28;20114;-64
2022/02/15 11:35:13;;;;;;;3.55;2.15;;;;;;;4.46;100.00;94845.34;5000195;28;20037;-62
2022/02/15 11:37:38;;;;;;;3.13;2.10;;;;;;;4.44;100.00;94847.38;5003195;28;20025;-62
2022/02/15 11:40:07;;;;;;;4.00;1.92;;;;;;;4.34;100.00;94849.81;4999877;28;20048;-63